Time;durP1;ratioP1;P1;durP2;ratioP2;P2;SDS_P1;SDS_P2;PMS_P1;PMS_P2;Temp;Humidity;BMP_temperature;BMP_pressure;BME280_temperature;BME280_humidity;BME280_pressure;Samples;Min_cycle;Max_cycle;Signal;HPM_P1;HPM_P2
2024/02/10 00:00:20;;;;;;;1.52;0.40;;;10.30;99.90;;;;;;6251045;22;20328;-87
2024/02/10 00:02:47;;;;;;;2.67;0.40;;;10.20;99.90;;;;;;6304838;22;20013;-87
2024/02/10 00:05:13;;;;;;;2.92;0.50;;;10.20;99.90;;;;;;6276683;22;20491;-86
2024/02/10 00:07:39;;;;;;;1.75;0.50;;;10.20;99.90;;;;;;6304420;22;20037;-87
2024/02/10 00:10:05;;;;;;;2.22;0.40;;;10.20;99.90;;;;;;6277065;22;20037;-87
2024/02/10 00:12:31;;;;;;;3.13;0.50;;;10.20;99.90;;;;;;6251299;22;20007;-87
2024/02/10 00:14:58;;;;;;;2.28;0.40;;;10.20;99.90;;;;;;6277023;22;20107;-87
2024/02/10 00:17:26;;;;;;;1.92;0.40;;;10.20;99.90;;;;;;6251177;22;20083;-87
2024/02/10 00:19:56;;;;;;;2.10;0.50;;;10.10;99.90;;;;;;6251267;22;20065;-87
2024/02/10 00:22:22;;;;;;;1.63;0.50;;;10.10;99.90;;;;;;6250792;22;20038;-87
2024/02/10 00:24:48;;;;;;;1.48;0.40;;;10.10;99.90;;;;;;6302337;22;20011;-87
2024/02/10 00:27:16;;;;;;;1.15;0.40;;;10.10;99.90;;;;;;6303625;22;20007;-87
2024/02/10 00:29:46;;;;;;;1.60;0.40;;;10.00;99.90;;;;;;6251362;22;20097;-86
2024/02/10 00:32:13;;;;;;;1.10;0.30;;;10.00;99.90;;;;;;6251040;22;20004;-86
2024/02/10 00:34:42;;;;;;;1.20;0.30;;;10.00;99.90;;;;;;6302027;22;20107;-86
2024/02/10 00:37:08;;;;;;;1.88;0.40;;;10.00;99.90;;;;;;6302349;22;20007;-86
2024/02/10 00:39:34;;;;;;;1.20;0.30;;;10.10;99.90;;;;;;6276595;22;20007;-87
2024/02/10 00:42:00;;;;;;;1.13;0.40;;;10.10;99.90;;;;;;6276679;22;20011;-86
2024/02/10 00:44:28;;;;;;;2.25;0.40;;;10.10;99.90;;;;;;6303444;22;20004;-87
2024/02/10 00:46:57;;;;;;;1.10;0.30;;;10.10;99.90;;;;;;6276743;22;20102;-87
2024/02/10 00:49:24;;;;;;;0.98;0.30;;;10.10;99.90;;;;;;6276782;22;20076;-86
2024/02/10 00:51:55;;;;;;;3.88;0.30;;;10.10;99.90;;;;;;6303897;22;20011;-86
2024/02/10 00:54:29;;;;;;;2.60;0.45;;;10.10;99.90;;;;;;6301963;22;20082;-86
2024/02/10 00:56:54;;;;;;;2.13;0.30;;;10.20;99.90;;;;;;6251238;22;20035;-86
2024/02/10 00:59:22;;;;;;;1.00;0.40;;;10.20;99.90;;;;;;6276237;22;20073;-86
2024/02/10 01:01:52;;;;;;;0.85;0.40;;;10.20;99.90;;;;;;6276667;22;20065;-86
2024/02/10 01:04:19;;;;;;;1.80;0.40;;;10.20;99.90;;;;;;6276172;22;20010;-87
2024/02/10 01:06:47;;;;;;;1.67;0.40;;;10.20;99.90;;;;;;6277054;22;20090;-86
2024/02/10 01:09:14;;;;;;;1.83;0.40;;;10.20;99.90;;;;;;6276444;22;20004;-86
2024/02/10 01:11:43;;;;;;;1.70;0.40;;;10.20;99.90;;;;;;6303616;22;20014;-86
2024/02/10 01:14:12;;;;;;;1.08;0.40;;;10.20;99.90;;;;;;6276661;22;20677;-87
2024/02/10 01:16:41;;;;;;;1.45;0.40;;;10.20;99.90;;;;;;6250853;22;20015;-87
2024/02/10 01:19:07;;;;;;;0.88;0.40;;;10.20;99.90;;;;;;6304116;22;20018;-86
2024/02/10 01:21:33;;;;;;;1.00;0.30;;;10.20;99.90;;;;;;6276019;22;20007;-87
2024/02/10 01:24:00;;;;;;;1.30;0.35;;;10.20;99.90;;;;;;6251895;22;20010;-86
2024/02/10 01:26:27;;;;;;;1.15;0.30;;;10.20;99.90;;;;;;6253427;22;20007;-87
2024/02/10 01:28:53;;;;;;;1.85;0.47;;;10.20;99.90;;;;;;6252858;22;20008;-86
2024/02/10 01:31:21;;;;;;;1.92;0.30;;;10.20;99.90;;;;;;6278494;22;20039;-87
2024/02/10 01:33:48;;;;;;;1.00;0.20;;;10.30;99.90;;;;;;6278633;22;20030;-86
2024/02/10 01:36:14;;;;;;;0.85;0.30;;;10.20;99.90;;;;;;6305720;22;20014;-87
2024/02/10 01:38:46;;;;;;;1.38;0.28;;;10.20;99.90;;;;;;6252830;22;19999;-86
2024/02/10 01:41:13;;;;;;;1.00;0.30;;;10.20;99.90;;;;;;6253328;22;20376;-87
2024/02/10 01:43:41;;;;;;;0.80;0.28;;;10.20;99.90;;;;;;6278400;22;20034;-87
2024/02/10 01:46:15;;;;;;;0.95;0.30;;;10.20;99.90;;;;;;6278577;22;20459;-87
2024/02/10 01:48:42;;;;;;;0.70;0.30;;;10.20;99.90;;;;;;6277741;22;20042;-87
2024/02/10 01:51:10;;;;;;;0.63;0.20;;;10.30;99.90;;;;;;6278008;22;20015;-87
2024/02/10 01:53:38;;;;;;;1.25;0.30;;;10.20;99.90;;;;;;6278341;22;20003;-87
2024/02/10 01:56:04;;;;;;;0.80;0.20;;;10.30;99.90;;;;;;6304676;22;20008;-87
2024/02/10 01:58:34;;;;;;;0.95;0.22;;;10.30;99.90;;;;;;6278297;22;20014;-86
2024/02/10 02:00:59;;;;;;;1.13;0.30;;;10.20;99.90;;;;;;6278125;22;20031;-87
2024/02/10 02:03:26;;;;;;;0.80;0.20;;;10.20;99.90;;;;;;6252130;22;20238;-86
2024/02/10 02:05:54;;;;;;;0.80;0.20;;;10.20;99.90;;;;;;6252481;22;20003;-86
2024/02/10 02:08:20;;;;;;;1.00;0.20;;;10.20;99.90;;;;;;6277955;22;20052;-86
2024/02/10 02:10:46;;;;;;;1.95;0.20;;;10.20;99.90;;;;;;6278213;22;20105;-87
2024/02/10 02:13:12;;;;;;;0.73;0.28;;;10.20;99.90;;;;;;6278138;22;20502;-86
2024/02/10 02:15:39;;;;;;;0.60;0.20;;;10.20;99.90;;;;;;6303879;22;20080;-88
2024/02/10 02:18:09;;;;;;;1.38;0.20;;;10.20;99.90;;;;;;6278124;22;20146;-87
2024/02/10 02:20:35;;;;;;;1.48;0.30;;;10.20;99.90;;;;;;6277815;22;20088;-86
2024/02/10 02:23:03;;;;;;;0.73;0.20;;;10.20;99.90;;;;;;6278729;22;20011;-87
2024/02/10 02:25:30;;;;;;;0.65;0.28;;;10.20;99.90;;;;;;6277977;22;20011;-86
2024/02/10 02:27:58;;;;;;;1.20;0.30;;;10.20;99.90;;;;;;6277597;22;20003;-86
2024/02/10 02:30:24;;;;;;;0.68;0.30;;;10.20;99.90;;;;;;6252042;22;20022;-86
2024/02/10 02:32:50;;;;;;;1.45;0.30;;;10.20;99.90;;;;;;6278109;22;20000;-88
2024/02/10 02:35:16;;;;;;;2.42;0.28;;;10.20;99.90;;;;;;6277093;22;20086;-87
2024/02/10 02:37:42;;;;;;;1.63;0.40;;;10.20;99.90;;;;;;6304629;22;20027;-86
2024/02/10 02:40:13;;;;;;;1.42;0.20;;;10.30;99.90;;;;;;6278026;22;20014;-86
2024/02/10 02:42:39;;;;;;;0.75;0.30;;;10.20;99.90;;;;;;6277567;22;20122;-86
2024/02/10 02:45:10;;;;;;;1.40;0.20;;;10.20;99.90;;;;;;6278142;22;20130;-86
2024/02/10 02:47:36;;;;;;;1.00;0.30;;;10.20;99.90;;;;;;6251608;22;20098;-84
2024/02/10 02:50:08;;;;;;;0.82;0.20;;;10.10;99.90;;;;;;6277778;22;20083;-87
2024/02/10 02:52:37;;;;;;;1.08;0.30;;;10.10;99.90;;;;;;6251963;22;20007;-87
2024/02/10 02:55:04;;;;;;;1.13;0.28;;;10.10;99.90;;;;;;6252353;22;20014;-87
2024/02/10 02:57:31;;;;;;;0.85;0.30;;;10.10;99.90;;;;;;6304061;22;20003;-87
2024/02/10 02:59:57;;;;;;;0.55;0.20;;;10.00;99.90;;;;;;6303368;22;20003;-86
2024/02/10 03:02:23;;;;;;;1.20;0.30;;;10.00;99.90;;;;;;6277175;22;20065;-86
2024/02/10 03:04:49;;;;;;;1.25;0.20;;;10.00;99.90;;;;;;6252160;22;20003;-87
2024/02/10 03:07:18;;;;;;;2.80;0.30;;;10.00;99.90;;;;;;6252016;22;20007;-86
2024/02/10 03:09:44;;;;;;;0.60;0.20;;;9.90;99.90;;;;;;6302905;22;20023;-86
2024/02/10 03:12:14;;;;;;;0.68;0.30;;;9.90;99.90;;;;;;6276996;22;20010;-86
2024/02/10 03:14:41;;;;;;;0.63;0.20;;;9.90;99.90;;;;;;6304631;22;20470;-86
2024/02/10 03:17:10;;;;;;;0.70;0.20;;;9.90;99.90;;;;;;6276754;22;20009;-86
2024/02/10 03:19:37;;;;;;;0.60;0.20;;;9.90;99.90;;;;;;6251953;22;20008;-87
2024/02/10 03:22:05;;;;;;;0.90;0.30;;;9.90;99.90;;;;;;6252163;22;20372;-87
2024/02/10 03:24:35;;;;;;;0.60;0.20;;;9.90;99.90;;;;;;6251424;22;20335;-87
2024/02/10 03:27:00;;;;;;;0.88;0.30;;;9.90;99.90;;;;;;6277437;22;20388;-87
2024/02/10 03:29:26;;;;;;;1.67;0.30;;;9.80;99.90;;;;;;6276968;22;19999;-86
2024/02/10 03:31:52;;;;;;;0.90;0.30;;;9.80;99.90;;;;;;6303330;22;20014;-86
2024/02/10 03:34:18;;;;;;;0.60;0.20;;;9.70;99.90;;;;;;6277121;22;20008;-86
2024/02/10 03:36:44;;;;;;;0.75;0.30;;;9.70;99.90;;;;;;6304484;22;20340;-86
2024/02/10 03:39:10;;;;;;;1.40;0.30;;;9.60;99.90;;;;;;6276828;22;20008;-86
2024/02/10 03:41:35;;;;;;;0.70;0.30;;;9.60;99.90;;;;;;6277181;22;20015;-86
2024/02/10 03:44:02;;;;;;;0.90;0.50;;;9.60;99.90;;;;;;6277462;22;20000;-86
2024/02/10 03:46:30;;;;;;;1.13;0.30;;;9.60;99.90;;;;;;6276595;22;20078;-85
2024/02/10 03:48:59;;;;;;;1.00;0.30;;;9.50;99.90;;;;;;6277250;22;20022;-86
2024/02/10 03:51:26;;;;;;;1.98;0.30;;;9.60;99.90;;;;;;6303924;22;20103;-87
2024/02/10 03:53:52;;;;;;;0.93;0.30;;;9.60;99.90;;;;;;6276888;22;20424;-87
2024/02/10 03:56:17;;;;;;;1.00;0.30;;;9.50;99.90;;;;;;6303798;22;20014;-86
2024/02/10 03:58:47;;;;;;;1.00;0.30;;;9.60;99.90;;;;;;6251245;22;20502;-87
2024/02/10 04:01:14;;;;;;;1.23;0.30;;;9.60;99.90;;;;;;6251404;22;20064;-87
2024/02/10 04:03:47;;;;;;;1.30;0.40;;;9.50;99.90;;;;;;6251224;22;20360;-87
2024/02/10 04:06:17;;;;;;;0.77;0.30;;;9.60;99.90;;;;;;6276717;22;20552;-87
2024/02/10 04:08:46;;;;;;;0.70;0.22;;;9.50;99.90;;;;;;6277177;22;20112;-87
2024/02/10 04:11:16;;;;;;;1.30;0.40;;;9.60;99.90;;;;;;6304039;22;20011;-86
2024/02/10 04:13:43;;;;;;;1.60;0.50;;;9.60;99.90;;;;;;6277077;22;20257;-86
2024/02/10 04:16:10;;;;;;;1.67;0.30;;;9.60;99.90;;;;;;6250707;22;20007;-86
2024/02/10 04:18:37;;;;;;;1.17;0.40;;;9.50;99.90;;;;;;6276697;22;20010;-86
2024/02/10 04:21:04;;;;;;;0.85;0.30;;;9.50;99.90;;;;;;6277013;22;20406;-87
2024/02/10 04:23:31;;;;;;;2.40;0.57;;;9.50;99.90;;;;;;6302138;22;20443;-86
2024/02/10 04:26:01;;;;;;;1.45;0.40;;;9.50;99.90;;;;;;6251106;22;20023;-86
2024/02/10 04:28:27;;;;;;;0.80;0.30;;;9.40;99.90;;;;;;6276203;22;20014;-87
2024/02/10 04:30:53;;;;;;;1.35;0.40;;;9.30;99.90;;;;;;6276752;22;20015;-87
2024/02/10 04:33:19;;;;;;;1.17;0.30;;;9.30;99.90;;;;;;6302340;22;20133;-86
2024/02/10 04:35:45;;;;;;;1.23;0.30;;;9.40;99.90;;;;;;6277322;22;20011;-86
2024/02/10 04:38:11;;;;;;;1.45;0.40;;;9.40;99.90;;;;;;6276231;22;20003;-87
2024/02/10 04:40:37;;;;;;;1.52;0.50;;;9.40;99.90;;;;;;6250976;22;20443;-86
2024/02/10 04:43:03;;;;;;;1.33;0.35;;;9.50;99.90;;;;;;6302789;22;20008;-86
2024/02/10 04:45:31;;;;;;;0.90;0.43;;;9.30;99.90;;;;;;6276720;22;20030;-86
2024/02/10 04:47:58;;;;;;;1.05;0.47;;;9.30;99.90;;;;;;6276126;22;20018;-86
2024/02/10 04:50:24;;;;;;;1.15;0.70;;;9.20;99.90;;;;;;6276112;22;20027;-86
2024/02/10 04:52:50;;;;;;;1.25;0.40;;;9.20;99.90;;;;;;6250769;22;20132;-86
2024/02/10 04:55:19;;;;;;;1.45;0.40;;;9.10;99.90;;;;;;6303488;22;20089;-86
2024/02/10 04:57:45;;;;;;;1.10;0.43;;;9.10;99.90;;;;;;6251062;22;20030;-86
2024/02/10 05:00:18;;;;;;;2.00;0.47;;;9.10;99.90;;;;;;6276099;22;20010;-86
2024/02/10 05:02:50;;;;;;;1.48;0.50;;;9.00;99.90;;;;;;6251340;22;20010;-86
2024/02/10 05:05:20;;;;;;;1.40;0.50;;;9.00;99.90;;;;;;6250979;22;20045;-86
2024/02/10 05:07:54;;;;;;;1.03;0.47;;;9.00;99.90;;;;;;6276666;22;20427;-86
2024/02/10 05:10:20;;;;;;;1.38;0.50;;;9.00;99.90;;;;;;6250585;22;20261;-86
2024/02/10 05:12:47;;;;;;;2.33;0.50;;;8.90;99.90;;;;;;6276165;22;20069;-86
2024/02/10 05:15:19;;;;;;;1.60;0.50;;;8.90;99.90;;;;;;6276012;22;20008;-85
2024/02/10 05:17:49;;;;;;;0.98;0.40;;;8.80;99.90;;;;;;6250576;22;20336;-86
2024/02/10 05:20:26;;;;;;;;;;;8.80;99.90;;;;;;6304054;22;20448;-85
2024/02/10 05:22:53;;;;;;;1.70;0.50;;;8.80;99.90;;;;;;6250753;22;20235;-85
2024/02/10 05:25:20;;;;;;;1.10;0.50;;;8.70;99.90;;;;;;6276199;22;20379;-85
2024/02/10 05:27:47;;;;;;;1.15;0.40;;;8.70;99.90;;;;;;6273774;22;20141;-85
2024/02/10 05:30:19;;;;;;;1.90;0.55;;;8.70;99.90;;;;;;6302765;22;20015;-87
2024/02/10 05:32:45;;;;;;;2.13;0.57;;;8.60;99.90;;;;;;6250272;22;20007;-87
2024/02/10 05:35:24;;;;;;;1.63;0.55;;;8.50;99.90;;;;;;6276824;22;20003;-86
2024/02/10 05:37:53;;;;;;;1.48;0.50;;;8.50;99.90;;;;;;6276162;22;20440;-86
2024/02/10 05:40:20;;;;;;;2.38;0.60;;;8.50;99.90;;;;;;6250226;22;20003;-84
2024/02/10 05:42:47;;;;;;;1.63;0.68;;;8.40;99.90;;;;;;6276076;22;20064;-85
2024/02/10 05:45:17;;;;;;;2.13;0.50;;;8.40;99.90;;;;;;6275928;22;20007;-86
2024/02/10 05:47:44;;;;;;;;;;;8.40;99.90;;;;;;6303248;22;20015;-85
2024/02/10 05:50:16;;;;;;;1.50;0.60;;;8.40;99.90;;;;;;6250169;22;19950;-86
2024/02/10 05:52:48;;;;;;;1.50;0.60;;;8.50;99.90;;;;;;6250494;22;20011;-87
2024/02/10 05:55:21;;;;;;;2.25;0.70;;;8.40;99.90;;;;;;6302298;22;20090;-86
2024/02/10 05:57:50;;;;;;;2.60;0.70;;;8.50;99.90;;;;;;6275174;22;20003;-86
2024/02/10 06:00:16;;;;;;;1.80;0.70;;;8.50;99.90;;;;;;6250550;22;20011;-84
2024/02/10 06:02:42;;;;;;;2.38;0.70;;;8.40;99.90;;;;;;6276035;22;20099;-86
2024/02/10 06:05:09;;;;;;;2.47;1.02;;;8.30;99.90;;;;;;6250616;22;20432;-84
2024/02/10 06:07:36;;;;;;;2.17;1.13;;;8.30;99.90;;;;;;6276301;22;20031;-87
2024/02/10 06:10:12;;;;;;;2.88;0.70;;;8.20;99.90;;;;;;6276703;22;20339;-86
2024/02/10 06:12:46;;;;;;;2.00;0.90;;;8.30;99.90;;;;;;6252249;22;20007;-86
2024/02/10 06:15:12;;;;;;;2.25;0.90;;;8.30;99.90;;;;;;6252051;22;20007;-87
2024/02/10 06:17:39;;;;;;;2.75;1.52;;;8.30;99.90;;;;;;6277701;22;20090;-86
2024/02/10 06:20:14;;;;;;;1.73;0.70;;;8.50;99.90;;;;;;6252273;22;20096;-87
2024/02/10 06:22:41;;;;;;;2.30;0.90;;;8.50;99.90;;;;;;6252649;22;20018;-87
2024/02/10 06:25:13;;;;;;;2.67;0.88;;;8.60;99.90;;;;;;6277551;22;20006;-86
2024/02/10 06:27:45;;;;;;;1.88;0.70;;;8.60;99.90;;;;;;6277294;22;20432;-88
2024/02/10 06:30:14;;;;;;;1.92;0.68;;;8.70;99.90;;;;;;6251788;22;20015;-87
2024/02/10 06:32:40;;;;;;;2.28;0.80;;;8.80;99.90;;;;;;6252385;22;20003;-87
2024/02/10 06:35:09;;;;;;;2.72;1.00;;;8.80;99.90;;;;;;6253159;22;20008;-87
2024/02/10 06:37:36;;;;;;;2.70;0.65;;;8.80;99.90;;;;;;6252390;22;20086;-88
2024/02/10 06:40:03;;;;;;;1.50;0.80;;;8.80;99.90;;;;;;6252105;22;20336;-87
2024/02/10 06:42:34;;;;;;;1.60;0.70;;;8.90;99.90;;;;;;6251595;22;20312;-87
2024/02/10 06:45:01;;;;;;;1.63;0.70;;;8.80;99.90;;;;;;6303874;22;20088;-88
2024/02/10 06:47:26;;;;;;;1.63;0.60;;;8.90;99.90;;;;;;6276999;22;20015;-88
2024/02/10 06:49:52;;;;;;;2.55;0.60;;;8.90;99.90;;;;;;6278045;22;20037;-88
2024/02/10 06:52:19;;;;;;;2.05;0.77;;;8.90;99.90;;;;;;6277616;22;20007;-88
2024/02/10 06:54:50;;;;;;;1.92;1.00;;;8.90;99.90;;;;;;6278069;22;20010;-88
2024/02/10 06:57:16;;;;;;;1.83;0.75;;;8.80;99.90;;;;;;6252505;22;20086;-89
2024/02/10 06:59:42;;;;;;;2.17;0.65;;;8.80;99.90;;;;;;6278401;22;20568;-89
2024/02/10 07:02:07;;;;;;;3.20;0.90;;;8.80;99.90;;;;;;6278053;22;20092;-88
2024/02/10 07:04:37;;;;;;;1.98;0.80;;;9.00;99.90;;;;;;6279063;22;20007;-88
2024/02/10 07:07:04;;;;;;;1.95;0.98;;;8.90;99.90;;;;;;6304472;22;20018;-88
2024/02/10 07:09:29;;;;;;;2.08;0.90;;;8.90;99.90;;;;;;6303986;22;20015;-88
2024/02/10 07:11:55;;;;;;;2.00;1.00;;;8.90;99.90;;;;;;6252858;22;20090;-88
2024/02/10 07:14:22;;;;;;;2.45;0.80;;;8.90;99.90;;;;;;6277424;22;20007;-87
2024/02/10 07:16:48;;;;;;;2.65;0.80;;;9.00;99.90;;;;;;6304434;22;20007;-88
2024/02/10 07:19:15;;;;;;;1.70;0.60;;;9.10;99.90;;;;;;6276444;22;20128;-88
2024/02/10 07:21:45;;;;;;;2.33;0.80;;;9.10;99.90;;;;;;6277289;22;20007;-87
2024/02/10 07:24:12;;;;;;;2.05;0.60;;;9.20;99.90;;;;;;6250853;22;20008;-87
2024/02/10 07:26:38;;;;;;;1.63;0.70;;;9.20;99.90;;;;;;6276632;22;20008;-87
2024/02/10 07:29:05;;;;;;;1.25;0.50;;;9.30;99.90;;;;;;6303894;22;20026;-87
2024/02/10 07:31:31;;;;;;;1.85;1.08;;;9.30;99.90;;;;;;6277134;22;20015;-87
2024/02/10 07:33:58;;;;;;;4.40;1.23;;;9.30;99.90;;;;;;6251806;22;20003;-87
2024/02/10 07:36:37;;;;;;;1.38;0.52;;;9.40;99.90;;;;;;6276455;22;20023;-87
2024/02/10 07:39:07;;;;;;;2.20;0.77;;;9.40;99.90;;;;;;6276895;22;20011;-87
2024/02/10 07:41:39;;;;;;;1.70;0.55;;;9.50;99.90;;;;;;6250789;22;20034;-87
2024/02/10 07:44:07;;;;;;;1.92;0.60;;;9.50;99.90;;;;;;6251090;22;20013;-87
2024/02/10 07:46:34;;;;;;;1.52;0.70;;;9.50;99.90;;;;;;6250849;22;20052;-86
2024/02/10 07:49:07;;;;;;;1.50;0.50;;;9.60;99.90;;;;;;6250736;22;20007;-87
2024/02/10 07:51:33;;;;;;;1.60;0.70;;;9.60;99.90;;;;;;6249706;22;20019;-87
2024/02/10 07:53:59;;;;;;;2.35;0.77;;;9.60;99.90;;;;;;6304048;22;20030;-87
2024/02/10 07:56:28;;;;;;;2.63;0.98;;;9.60;99.90;;;;;;6275965;22;20463;-86
2024/02/10 07:58:58;;;;;;;2.33;0.70;;;9.70;99.90;;;;;;6276717;22;20365;-87
2024/02/10 08:01:25;;;;;;;1.92;0.80;;;9.70;99.90;;;;;;6302744;22;20487;-86
2024/02/10 08:03:54;;;;;;;2.95;0.63;;;9.70;99.90;;;;;;6250963;22;20011;-86
2024/02/10 08:06:26;;;;;;;1.55;0.65;;;9.80;99.90;;;;;;6276233;22;20003;-88
2024/02/10 08:09:01;;;;;;;2.00;0.80;;;9.80;99.90;;;;;;6276921;22;20096;-87
2024/02/10 08:11:27;;;;;;;2.45;0.82;;;9.80;99.90;;;;;;6274117;22;20112;-87
2024/02/10 08:13:57;;;;;;;2.05;0.80;;;9.80;99.90;;;;;;6274731;22;20011;-85
2024/02/10 08:16:30;;;;;;;1.50;0.63;;;9.90;99.90;;;;;;6274472;22;20045;-87
2024/02/10 08:18:59;;;;;;;2.40;0.60;;;9.90;99.90;;;;;;6249392;22;20486;-87
2024/02/10 08:21:30;;;;;;;1.55;0.70;;;9.90;99.90;;;;;;6274903;22;20472;-86
2024/02/10 08:23:57;;;;;;;1.60;0.80;;;9.90;99.90;;;;;;6249699;22;20011;-87
2024/02/10 08:26:27;;;;;;;1.60;0.70;;;10.00;99.90;;;;;;6274198;22;20026;-87
2024/02/10 08:28:57;;;;;;;2.22;0.80;;;10.00;99.90;;;;;;6249548;22;20443;-87
2024/02/10 08:31:30;;;;;;;2.42;0.70;;;10.00;99.90;;;;;;6274854;22;20012;-87
2024/02/10 08:33:58;;;;;;;1.35;0.65;;;10.00;99.90;;;;;;6275698;22;20003;-88
2024/02/10 08:36:24;;;;;;;1.73;0.70;;;10.10;99.90;;;;;;6275095;22;20011;-88
2024/02/10 08:38:49;;;;;;;1.92;0.70;;;10.10;99.90;;;;;;6275915;22;20037;-88
2024/02/10 08:41:17;;;;;;;1.95;0.70;;;10.10;99.90;;;;;;6249010;22;20031;-88
2024/02/10 08:43:47;;;;;;;1.63;0.90;;;10.20;99.90;;;;;;6303083;22;20003;-89
2024/02/10 08:46:16;;;;;;;1.67;0.80;;;10.20;99.90;;;;;;6250436;22;20011;-88
2024/02/10 08:48:42;;;;;;;3.42;1.00;;;10.20;99.90;;;;;;6251300;22;20050;-90
2024/02/10 08:51:12;;;;;;;2.30;1.10;;;10.30;99.90;;;;;;6303236;22;20018;-90
2024/02/10 08:53:44;;;;;;;;;;;10.30;99.90;;;;;;6251041;22;20108;-90
2024/02/10 08:56:13;;;;;;;2.40;0.70;;;10.40;99.90;;;;;;6250615;22;19903;-89
2024/02/10 08:58:39;;;;;;;1.38;0.60;;;10.40;99.90;;;;;;6250577;22;20011;-90
2024/02/10 09:01:06;;;;;;;1.30;0.60;;;10.40;99.90;;;;;;6278169;22;20038;-91
2024/02/10 09:03:35;;;;;;;1.65;0.60;;;10.50;99.90;;;;;;6278714;22;20527;-88
2024/02/10 09:06:01;;;;;;;1.70;0.60;;;10.60;99.90;;;;;;6278287;22;20066;-90
2024/02/10 09:08:27;;;;;;;1.90;0.60;;;10.60;99.90;;;;;;6253328;22;20014;-90
2024/02/10 09:10:52;;;;;;;3.17;0.60;;;10.60;99.90;;;;;;6279457;22;20329;-90
2024/02/10 09:13:19;;;;;;;1.30;0.50;;;10.60;99.90;;;;;;6253020;22;20477;-89
2024/02/10 09:15:45;;;;;;;1.48;0.50;;;10.60;99.90;;;;;;6278772;22;20103;-91
2024/02/10 09:18:12;;;;;;;1.38;0.50;;;10.70;99.90;;;;;;6253203;22;20027;-90
2024/02/10 09:20:37;;;;;;;1.50;0.50;;;10.60;99.90;;;;;;6278235;22;20120;-90
2024/02/10 09:23:03;;;;;;;1.00;0.40;;;10.70;99.90;;;;;;6304502;22;20007;-91
2024/02/10 09:25:29;;;;;;;1.10;0.47;;;10.70;99.90;;;;;;6252532;22;20003;-90
2024/02/10 09:27:59;;;;;;;1.45;0.57;;;10.80;99.90;;;;;;6278835;22;20018;-90
2024/02/10 09:30:25;;;;;;;1.33;0.50;;;10.80;99.90;;;;;;6278449;22;20091;-90
2024/02/10 09:32:51;;;;;;;1.33;0.45;;;10.80;99.90;;;;;;6252944;22;19999;-89
2024/02/10 09:35:23;;;;;;;1.38;0.50;;;10.90;99.90;;;;;;6278532;22;20015;-87
2024/02/10 09:37:49;;;;;;;1.02;0.50;;;10.90;99.90;;;;;;6305532;22;20006;-88
2024/02/10 09:40:15;;;;;;;2.05;0.40;;;10.90;99.90;;;;;;6278382;22;20042;-88
2024/02/10 09:42:47;;;;;;;1.20;0.43;;;11.00;99.90;;;;;;6304262;22;20407;-88
2024/02/10 09:45:16;;;;;;;1.50;0.50;;;10.90;99.90;;;;;;6250857;22;20015;-87
2024/02/10 09:47:45;;;;;;;1.77;0.50;;;10.90;99.90;;;;;;6266750;22;20019;-87
2024/02/10 09:50:14;;;;;;;1.48;0.40;;;11.00;99.90;;;;;;6253891;22;20029;-87
2024/02/10 09:52:47;;;;;;;1.40;0.60;;;11.10;99.90;;;;;;6252307;22;20003;-87
2024/02/10 09:55:16;;;;;;;1.35;0.40;;;11.10;99.90;;;;;;6279809;22;20325;-88
2024/02/10 09:57:47;;;;;;;1.40;0.63;;;11.20;99.90;;;;;;6279862;22;20026;-88
2024/02/10 10:00:16;;;;;;;1.60;0.43;;;11.20;99.90;;;;;;6279832;22;20007;-87
2024/02/10 10:02:47;;;;;;;0.93;0.40;;;11.30;99.90;;;;;;6279843;22;20049;-87
2024/02/10 10:05:13;;;;;;;0.90;0.38;;;11.40;99.90;;;;;;6306686;22;20117;-86
2024/02/10 10:07:39;;;;;;;2.40;0.50;;;11.40;99.90;;;;;;6305225;22;20049;-88
2024/02/10 10:10:05;;;;;;;1.13;0.40;;;11.50;99.90;;;;;;6253626;22;20011;-88
2024/02/10 10:12:31;;;;;;;1.10;0.40;;;11.70;99.90;;;;;;6250886;22;20080;-88
2024/02/10 10:14:56;;;;;;;1.23;0.43;;;11.70;99.90;;;;;;6251032;22;20011;-87
2024/02/10 10:17:23;;;;;;;1.30;0.40;;;11.80;99.90;;;;;;6250481;22;19999;-88
2024/02/10 10:20:05;;;;;;;1.58;0.45;;;11.70;99.90;;;;;;6251556;22;20007;-88
2024/02/10 10:22:37;;;;;;;0.90;0.40;;;11.80;99.90;;;;;;6276602;22;20007;-88
2024/02/10 10:25:04;;;;;;;0.95;0.35;;;11.90;99.90;;;;;;6276941;22;20011;-87
2024/02/10 10:27:30;;;;;;;0.88;0.38;;;11.90;99.90;;;;;;6250188;22;20330;-87
2024/02/10 10:29:57;;;;;;;0.90;0.32;;;12.00;99.90;;;;;;6304003;22;20056;-87
2024/02/10 10:32:24;;;;;;;1.20;0.60;;;12.00;99.90;;;;;;6275788;22;20032;-87
2024/02/10 10:34:55;;;;;;;0.88;0.40;;;12.10;99.90;;;;;;6276913;22;20521;-87
2024/02/10 10:37:24;;;;;;;2.10;0.40;;;12.10;99.90;;;;;;6276607;22;20037;-87
2024/02/10 10:39:51;;;;;;;0.85;0.30;;;12.20;99.90;;;;;;6250994;22;20018;-87
2024/02/10 10:42:20;;;;;;;0.70;0.30;;;12.30;99.90;;;;;;6252290;22;20011;-87
2024/02/10 10:44:50;;;;;;;1.52;0.30;;;12.30;99.90;;;;;;6278583;22;20627;-87
2024/02/10 10:47:22;;;;;;;0.60;0.30;;;12.30;99.90;;;;;;6290345;22;20023;-87
2024/02/10 10:49:49;;;;;;;1.02;0.40;;;12.30;99.90;;;;;;6277406;22;20011;-87
2024/02/10 10:52:18;;;;;;;1.08;0.38;;;12.30;99.90;;;;;;6276866;22;20298;-87
2024/02/10 10:54:45;;;;;;;1.10;0.60;;;12.30;99.90;;;;;;6252774;22;20375;-88
2024/02/10 10:57:21;;;;;;;0.80;0.30;;;12.30;99.90;;;;;;6242563;22;20014;-87
2024/02/10 11:00:03;;;;;;;1.00;0.40;;;12.40;99.90;;;;;;6298708;22;20010;-88
2024/02/10 11:02:32;;;;;;;1.60;0.30;;;12.40;99.90;;;;;;6301920;22;20023;-87
2024/02/10 11:05:13;;;;;;;0.85;0.30;;;12.50;99.90;;;;;;6276428;22;20038;-89
2024/02/10 11:07:45;;;;;;;0.80;0.30;;;12.60;99.90;;;;;;6274034;22;20332;-88
2024/02/10 11:10:10;;;;;;;1.02;0.40;;;12.60;99.90;;;;;;6276335;22;20363;-88
2024/02/10 11:12:36;;;;;;;0.90;0.40;;;12.60;99.90;;;;;;6275920;22;20007;-87
2024/02/10 11:15:09;;;;;;;0.68;0.30;;;12.60;99.90;;;;;;6304522;22;20465;-87
2024/02/10 11:17:34;;;;;;;0.90;0.40;;;12.70;99.90;;;;;;6276217;22;20407;-88
2024/02/10 11:20:04;;;;;;;0.80;0.30;;;12.60;99.90;;;;;;6276439;22;20437;-88
2024/02/10 11:22:42;;;;;;;2.17;0.30;;;12.70;99.90;;;;;;6275649;22;20007;-87
2024/02/10 11:25:11;;;;;;;0.90;0.30;;;12.70;99.90;;;;;;6276076;22;20007;-88
2024/02/10 11:27:41;;;;;;;0.80;0.30;;;12.80;99.90;;;;;;6250532;22;20011;-88
2024/02/10 11:30:07;;;;;;;1.33;0.35;;;12.80;99.90;;;;;;6250472;22;20011;-88
2024/02/10 11:32:33;;;;;;;0.75;0.35;;;12.80;99.90;;;;;;6276078;22;20007;-88
2024/02/10 11:35:00;;;;;;;0.93;0.30;;;12.90;99.90;;;;;;6251199;22;20011;-88
2024/02/10 11:37:26;;;;;;;0.90;0.30;;;12.90;99.90;;;;;;6275233;22;20439;-88
2024/02/10 11:39:56;;;;;;;1.08;0.30;;;12.90;99.90;;;;;;6276298;22;20010;-88
2024/02/10 11:42:23;;;;;;;1.88;0.40;;;13.00;99.90;;;;;;6303009;22;20019;-88
2024/02/10 11:44:49;;;;;;;1.08;0.40;;;12.90;99.90;;;;;;6251010;22;20055;-88
2024/02/10 11:47:15;;;;;;;0.73;0.30;;;13.00;99.90;;;;;;6275910;22;20319;-88
2024/02/10 11:49:43;;;;;;;0.75;0.30;;;13.10;99.90;;;;;;6250615;22;20030;-88
2024/02/10 11:52:09;;;;;;;0.38;0.20;;;13.20;99.90;;;;;;6250168;22;20015;-87
2024/02/10 11:54:38;;;;;;;0.90;0.30;;;13.10;99.90;;;;;;6248776;22;20107;-88
2024/02/10 11:57:05;;;;;;;0.95;0.30;;;13.20;99.90;;;;;;6250194;22;20007;-88
2024/02/10 11:59:32;;;;;;;1.13;0.30;;;13.20;99.90;;;;;;6275831;22;20060;-88
2024/02/10 12:01:59;;;;;;;0.50;0.30;;;13.30;99.90;;;;;;6250398;22;20106;-87
2024/02/10 12:04:26;;;;;;;0.90;0.30;;;13.20;99.90;;;;;;6250129;22;20420;-86
2024/02/10 12:06:52;;;;;;;1.25;0.30;;;13.30;99.90;;;;;;6250757;22;20007;-88
2024/02/10 12:09:19;;;;;;;1.55;0.70;;;13.30;99.90;;;;;;6249626;22;20007;-87
2024/02/10 12:11:46;;;;;;;1.23;0.50;;;13.30;99.90;;;;;;6248719;22;20040;-87
2024/02/10 12:14:15;;;;;;;1.00;0.30;;;13.20;99.90;;;;;;6276816;22;20156;-87
2024/02/10 12:16:44;;;;;;;0.90;0.30;;;13.30;99.90;;;;;;6303063;22;19999;-88
2024/02/10 12:19:10;;;;;;;1.25;0.30;;;13.40;99.90;;;;;;6252902;22;20064;-88
2024/02/10 12:21:41;;;;;;;1.40;0.30;;;13.30;99.90;;;;;;6252758;22;20019;-88
2024/02/10 12:24:10;;;;;;;0.60;0.25;;;13.30;99.90;;;;;;6252757;22;20472;-88
2024/02/10 12:26:37;;;;;;;1.10;0.30;;;13.40;99.90;;;;;;6277907;22;20015;-88
2024/02/10 12:29:04;;;;;;;1.40;0.40;;;13.40;99.90;;;;;;6278275;22;20034;-88
2024/02/10 12:31:31;;;;;;;1.05;0.30;;;13.40;99.90;;;;;;6252243;22;20026;-88
2024/02/10 12:33:57;;;;;;;1.40;0.40;;;13.50;99.90;;;;;;6277571;22;19995;-88
2024/02/10 12:36:24;;;;;;;0.88;0.30;;;13.50;99.90;;;;;;6252204;22;20093;-88
2024/02/10 12:38:55;;;;;;;1.10;0.40;;;13.50;99.90;;;;;;6278367;22;20090;-88
2024/02/10 12:41:22;;;;;;;0.80;0.30;;;13.50;99.90;;;;;;6304942;22;20014;-87
2024/02/10 12:43:48;;;;;;;1.55;0.30;;;13.40;99.90;;;;;;6252461;22;20015;-88
2024/02/10 12:46:16;;;;;;;1.30;0.30;;;13.50;99.90;;;;;;6303425;22;20006;-87
2024/02/10 12:48:42;;;;;;;1.65;0.30;;;13.40;99.90;;;;;;6278158;22;20053;-87
2024/02/10 12:51:08;;;;;;;0.73;0.28;;;13.30;99.90;;;;;;6278281;22;20015;-87
2024/02/10 12:53:34;;;;;;;1.38;0.30;;;13.40;99.90;;;;;;6278167;22;20026;-88
2024/02/10 12:56:03;;;;;;;1.02;0.30;;;13.40;99.90;;;;;;6304006;22;20128;-89